sensor_id;sensor_type;location;lat;lon;timestamp;P1;durP1;ratioP1;P2;durP2;ratioP2
17852;SDS011;9052;53.494;14.376;2022-11-18T06:55:43;13.33;;;8.90;;
17852;SDS011;9052;53.494;14.376;2022-11-18T06:58:10;18.37;;;10.50;;
17852;SDS011;9052;53.494;14.376;2022-11-18T07:00:37;20.37;;;14.13;;
17852;SDS011;9052;53.494;14.376;2022-11-18T07:03:04;8.17;;;6.63;;
17852;SDS011;9052;53.494;14.376;2022-11-18T07:05:31;11.93;;;7.70;;
17852;SDS011;9052;53.494;14.376;2022-11-18T07:07:58;12.97;;;8.37;;
17852;SDS011;9052;53.494;14.376;2022-11-18T07:10:25;11.40;;;6.70;;
17852;SDS011;9052;53.494;14.376;2022-11-18T07:12:53;9.20;;;6.30;;
17852;SDS011;9052;53.494;14.376;2022-11-18T07:15:20;5.90;;;4.67;;
17852;SDS011;9052;53.494;14.376;2022-11-18T07:17:47;4.57;;;4.13;;
17852;SDS011;9052;53.494;14.376;2022-11-18T07:20:14;3.80;;;3.53;;
17852;SDS011;9052;53.494;14.376;2022-11-18T07:22:41;3.53;;;3.20;;
17852;SDS011;9052;53.494;14.376;2022-11-18T07:25:08;2.23;;;2.07;;
17852;SDS011;9052;53.494;14.376;2022-11-18T07:27:35;3.27;;;3.00;;
17852;SDS011;9052;53.494;14.376;2022-11-18T07:30:04;4.03;;;3.53;;
17852;SDS011;9052;53.494;14.376;2022-11-18T07:32:32;3.70;;;2.80;;
17852;SDS011;9052;53.494;14.376;2022-11-18T07:34:59;6.17;;;4.30;;
17852;SDS011;9052;53.494;14.376;2022-11-18T07:37:26;5.50;;;3.60;;
17852;SDS011;9052;53.494;14.376;2022-11-18T07:39:53;3.40;;;3.20;;
17852;SDS011;9052;53.494;14.376;2022-11-18T07:42:20;2.10;;;1.80;;
17852;SDS011;9052;53.494;14.376;2022-11-18T07:44:47;30.17;;;2.87;;
17852;SDS011;9052;53.494;14.376;2022-11-18T07:47:15;3.50;;;2.20;;
17852;SDS011;9052;53.494;14.376;2022-11-18T07:49:42;1.70;;;1.60;;
17852;SDS011;9052;53.494;14.376;2022-11-18T07:52:09;2.70;;;2.10;;
17852;SDS011;9052;53.494;14.376;2022-11-18T07:54:36;2.30;;;2.10;;
17852;SDS011;9052;53.494;14.376;2022-11-18T07:57:03;1.47;;;1.37;;
17852;SDS011;9052;53.494;14.376;2022-11-18T07:59:30;2.03;;;1.93;;
17852;SDS011;9052;53.494;14.376;2022-11-18T08:01:57;2.43;;;1.80;;
17852;SDS011;9052;53.494;14.376;2022-11-18T08:04:26;2.07;;;1.90;;
17852;SDS011;9052;53.494;14.376;2022-11-18T08:06:53;2.07;;;1.43;;
17852;SDS011;9052;53.494;14.376;2022-11-18T08:09:20;1.40;;;1.30;;
17852;SDS011;9052;53.494;14.376;2022-11-18T08:11:47;1.17;;;1.17;;
17852;SDS011;9052;53.494;14.376;2022-11-18T08:14:14;2.00;;;1.80;;
17852;SDS011;9052;53.494;14.376;2022-11-18T08:16:41;2.07;;;1.97;;
17852;SDS011;9052;53.494;14.376;2022-11-18T08:19:08;1.13;;;1.13;;
17852;SDS011;9052;53.494;14.376;2022-11-18T08:21:36;1.10;;;1.00;;
17852;SDS011;9052;53.494;14.376;2022-11-18T08:24:04;2.10;;;1.60;;
17852;SDS011;9052;53.494;14.376;2022-11-18T08:26:32;2.23;;;1.63;;
17852;SDS011;9052;53.494;14.376;2022-11-18T08:28:59;1.40;;;1.30;;
17852;SDS011;9052;53.494;14.376;2022-11-18T08:31:27;2.13;;;1.90;;
17852;SDS011;9052;53.494;14.376;2022-11-18T08:33:55;7.53;;;1.20;;
17852;SDS011;9052;53.494;14.376;2022-11-18T08:36:23;2.00;;;1.90;;
17852;SDS011;9052;53.494;14.376;2022-11-18T08:38:53;1.87;;;1.73;;
17852;SDS011;9052;53.494;14.376;2022-11-18T08:41:27;1.73;;;1.63;;
17852;SDS011;9052;53.494;14.376;2022-11-18T08:43:55;2.17;;;1.70;;
17852;SDS011;9052;53.494;14.376;2022-11-18T08:46:22;1.97;;;1.73;;
17852;SDS011;9052;53.494;14.376;2022-11-18T08:48:49;3.80;;;1.87;;
17852;SDS011;9052;53.494;14.376;2022-11-18T08:51:16;1.23;;;1.13;;
17852;SDS011;9052;53.494;14.376;2022-11-18T08:53:43;2.00;;;1.37;;
17852;SDS011;9052;53.494;14.376;2022-11-18T08:56:13;2.70;;;1.80;;
17852;SDS011;9052;53.494;14.376;2022-11-18T08:58:41;1.57;;;1.47;;
17852;SDS011;9052;53.494;14.376;2022-11-18T09:01:08;1.23;;;1.20;;
17852;SDS011;9052;53.494;14.376;2022-11-18T09:03:36;2.80;;;2.10;;
17852;SDS011;9052;53.494;14.376;2022-11-18T09:06:06;2.20;;;1.77;;
17852;SDS011;9052;53.494;14.376;2022-11-18T09:08:33;2.67;;;1.87;;
17852;SDS011;9052;53.494;14.376;2022-11-18T09:11:03;2.67;;;1.77;;
17852;SDS011;9052;53.494;14.376;2022-11-18T09:13:32;3.77;;;2.10;;
17852;SDS011;9052;53.494;14.376;2022-11-18T09:15:59;2.07;;;1.87;;
17852;SDS011;9052;53.494;14.376;2022-11-18T09:18:26;2.27;;;1.60;;
17852;SDS011;9052;53.494;14.376;2022-11-18T09:20:54;1.67;;;1.53;;
17852;SDS011;9052;53.494;14.376;2022-11-18T09:23:21;3.30;;;2.27;;
17852;SDS011;9052;53.494;14.376;2022-11-18T09:25:48;9.80;;;5.30;;
17852;SDS011;9052;53.494;14.376;2022-11-18T09:28:15;1.90;;;1.67;;
17852;SDS011;9052;53.494;14.376;2022-11-18T09:30:43;2.30;;;1.70;;
17852;SDS011;9052;53.494;14.376;2022-11-18T09:33:11;2.23;;;2.07;;
17852;SDS011;9052;53.494;14.376;2022-11-18T09:35:40;3.93;;;2.90;;
17852;SDS011;9052;53.494;14.376;2022-11-18T09:38:07;2.30;;;2.00;;
17852;SDS011;9052;53.494;14.376;2022-11-18T09:40:34;3.07;;;2.00;;
17852;SDS011;9052;53.494;14.376;2022-11-18T09:43:08;3.10;;;2.90;;
17852;SDS011;9052;53.494;14.376;2022-11-18T09:45:42;1.40;;;1.30;;
17852;SDS011;9052;53.494;14.376;2022-11-18T09:48:18;5.30;;;1.93;;
17852;SDS011;9052;53.494;14.376;2022-11-18T09:51:07;8.77;;;3.80;;
17852;SDS011;9052;53.494;14.376;2022-11-18T09:53:35;6.03;;;3.17;;
17852;SDS011;9052;53.494;14.376;2022-11-18T09:56:07;2.30;;;1.63;;
17852;SDS011;9052;53.494;14.376;2022-11-18T09:58:37;4.30;;;2.37;;
17852;SDS011;9052;53.494;14.376;2022-11-18T10:01:09;1.63;;;1.47;;
17852;SDS011;9052;53.494;14.376;2022-11-18T10:03:38;2.03;;;1.60;;
17852;SDS011;9052;53.494;14.376;2022-11-18T10:06:11;4.27;;;3.00;;
17852;SDS011;9052;53.494;14.376;2022-11-18T10:08:43;2.00;;;1.67;;
17852;SDS011;9052;53.494;14.376;2022-11-18T10:11:15;1.87;;;1.60;;
17852;SDS011;9052;53.494;14.376;2022-11-18T10:13:47;3.13;;;2.40;;
17852;SDS011;9052;53.494;14.376;2022-11-18T10:16:24;3.63;;;2.67;;
17852;SDS011;9052;53.494;14.376;2022-11-18T10:18:59;5.10;;;3.03;;
17852;SDS011;9052;53.494;14.376;2022-11-18T10:21:39;2.20;;;2.10;;
17852;SDS011;9052;53.494;14.376;2022-11-18T10:24:11;1.53;;;1.43;;
17852;SDS011;9052;53.494;14.376;2022-11-18T10:26:42;6.80;;;4.00;;
17852;SDS011;9052;53.494;14.376;2022-11-18T10:29:09;5.83;;;1.60;;
17852;SDS011;9052;53.494;14.376;2022-11-18T10:31:37;2.03;;;1.83;;
17852;SDS011;9052;53.494;14.376;2022-11-18T10:34:07;2.93;;;2.63;;
17852;SDS011;9052;53.494;14.376;2022-11-18T10:36:36;2.27;;;1.90;;
17852;SDS011;9052;53.494;14.376;2022-11-18T10:39:04;3.87;;;1.97;;
17852;SDS011;9052;53.494;14.376;2022-11-18T10:41:37;13.07;;;4.47;;
17852;SDS011;9052;53.494;14.376;2022-11-18T10:44:08;1.53;;;1.43;;
17852;SDS011;9052;53.494;14.376;2022-11-18T10:46:54;3.00;;;2.10;;
17852;SDS011;9052;53.494;14.376;2022-11-18T10:49:21;2.57;;;2.03;;
17852;SDS011;9052;53.494;14.376;2022-11-18T10:52:04;2.13;;;1.37;;
17852;SDS011;9052;53.494;14.376;2022-11-18T10:54:34;1.17;;;1.10;;
17852;SDS011;9052;53.494;14.376;2022-11-18T10:57:02;10.43;;;1.80;;
17852;SDS011;9052;53.494;14.376;2022-11-18T10:59:32;0.97;;;0.87;;
17852;SDS011;9052;53.494;14.376;2022-11-18T11:02:11;1.70;;;1.60;;
17852;SDS011;9052;53.494;14.376;2022-11-18T11:04:42;1.67;;;1.40;;
17852;SDS011;9052;53.494;14.376;2022-11-18T11:07:14;2.50;;;1.47;;
17852;SDS011;9052;53.494;14.376;2022-11-18T11:10:01;1.17;;;1.07;;
17852;SDS011;9052;53.494;14.376;2022-11-18T11:12:43;1.00;;;1.00;;
17852;SDS011;9052;53.494;14.376;2022-11-18T11:15:15;1.33;;;1.30;;
17852;SDS011;9052;53.494;14.376;2022-11-18T11:17:47;2.70;;;1.00;;
17852;SDS011;9052;53.494;14.376;2022-11-18T11:20:37;1.53;;;1.37;;
17852;SDS011;9052;53.494;14.376;2022-11-18T11:23:07;1.33;;;1.23;;
17852;SDS011;9052;53.494;14.376;2022-11-18T11:25:35;2.37;;;2.27;;
17852;SDS011;9052;53.494;14.376;2022-11-18T11:28:09;4.63;;;1.00;;
17852;SDS011;9052;53.494;14.376;2022-11-18T11:30:43;7.47;;;1.70;;
17852;SDS011;9052;53.494;14.376;2022-11-18T11:33:23;2.50;;;1.43;;
17852;SDS011;9052;53.494;14.376;2022-11-18T11:38:52;3.00;;;0.97;;
17852;SDS011;9052;53.494;14.376;2022-11-18T11:41:25;2.90;;;1.80;;
17852;SDS011;9052;53.494;14.376;2022-11-18T11:44:02;2.57;;;1.90;;
17852;SDS011;9052;53.494;14.376;2022-11-18T11:46:41;3.13;;;1.80;;
17852;SDS011;9052;53.494;14.376;2022-11-18T11:49:45;1.90;;;1.27;;
17852;SDS011;9052;53.494;14.376;2022-11-18T11:52:19;1.30;;;1.20;;
17852;SDS011;9052;53.494;14.376;2022-11-18T11:54:53;1.50;;;1.50;;
17852;SDS011;9052;53.494;14.376;2022-11-18T11:57:29;3.13;;;1.77;;
17852;SDS011;9052;53.494;14.376;2022-11-18T12:00:06;2.00;;;1.33;;
17852;SDS011;9052;53.494;14.376;2022-11-18T12:02:50;1.63;;;1.43;;
17852;SDS011;9052;53.494;14.376;2022-11-18T12:05:24;10.90;;;4.40;;
17852;SDS011;9052;53.494;14.376;2022-11-18T12:07:55;2.03;;;1.77;;
17852;SDS011;9052;53.494;14.376;2022-11-18T12:10:27;1.33;;;1.23;;
17852;SDS011;9052;53.494;14.376;2022-11-18T12:13:10;4.43;;;2.93;;
17852;SDS011;9052;53.494;14.376;2022-11-18T12:15:45;7.57;;;4.00;;
17852;SDS011;9052;53.494;14.376;2022-11-18T12:18:19;2.00;;;1.80;;
17852;SDS011;9052;53.494;14.376;2022-11-18T12:20:51;12.83;;;5.17;;
17852;SDS011;9052;53.494;14.376;2022-11-18T12:23:19;6.70;;;4.40;;
17852;SDS011;9052;53.494;14.376;2022-11-18T12:25:57;1.70;;;1.40;;
17852;SDS011;9052;53.494;14.376;2022-11-18T12:28:27;6.60;;;4.23;;
17852;SDS011;9052;53.494;14.376;2022-11-18T12:34:17;7.27;;;5.93;;
17852;SDS011;9052;53.494;14.376;2022-11-18T12:36:55;4.93;;;2.80;;
17852;SDS011;9052;53.494;14.376;2022-11-18T12:42:42;2.57;;;1.60;;
17852;SDS011;9052;53.494;14.376;2022-11-18T12:48:29;2.33;;;2.13;;
17852;SDS011;9052;53.494;14.376;2022-11-18T12:56:59;2.53;;;1.67;;
17852;SDS011;9052;53.494;14.376;2022-11-18T12:59:28;1.30;;;1.20;;
17852;SDS011;9052;53.494;14.376;2022-11-18T13:02:00;2.17;;;1.97;;
17852;SDS011;9052;53.494;14.376;2022-11-18T13:04:31;0.93;;;0.93;;
17852;SDS011;9052;53.494;14.376;2022-11-18T13:06:58;2.73;;;1.20;;
17852;SDS011;9052;53.494;14.376;2022-11-18T13:09:28;1.60;;;1.47;;
17852;SDS011;9052;53.494;14.376;2022-11-18T13:11:58;1.27;;;1.20;;
17852;SDS011;9052;53.494;14.376;2022-11-18T13:14:28;1.10;;;1.10;;
17852;SDS011;9052;53.494;14.376;2022-11-18T13:17:24;1.63;;;1.50;;
17852;SDS011;9052;53.494;14.376;2022-11-18T13:20:19;1.80;;;1.70;;
17852;SDS011;9052;53.494;14.376;2022-11-18T13:22:50;1.70;;;1.60;;
17852;SDS011;9052;53.494;14.376;2022-11-18T13:25:35;1.80;;;1.70;;
17852;SDS011;9052;53.494;14.376;2022-11-18T13:28:05;2.10;;;1.60;;
17852;SDS011;9052;53.494;14.376;2022-11-18T13:30:41;1.80;;;1.70;;
17852;SDS011;9052;53.494;14.376;2022-11-18T13:33:13;3.60;;;1.27;;
17852;SDS011;9052;53.494;14.376;2022-11-18T13:35:40;1.53;;;1.43;;
17852;SDS011;9052;53.494;14.376;2022-11-18T13:38:15;4.63;;;4.23;;
17852;SDS011;9052;53.494;14.376;2022-11-18T13:40:46;2.13;;;1.33;;
17852;SDS011;9052;53.494;14.376;2022-11-18T13:43:30;1.97;;;1.80;;
17852;SDS011;9052;53.494;14.376;2022-11-18T13:45:57;7.30;;;2.07;;
17852;SDS011;9052;53.494;14.376;2022-11-18T13:48:25;1.30;;;1.20;;
17852;SDS011;9052;53.494;14.376;2022-11-18T13:50:54;1.63;;;1.53;;
17852;SDS011;9052;53.494;14.376;2022-11-18T13:53:25;1.13;;;1.13;;
17852;SDS011;9052;53.494;14.376;2022-11-18T13:55:54;2.60;;;1.13;;
17852;SDS011;9052;53.494;14.376;2022-11-18T13:58:31;1.97;;;1.87;;
17852;SDS011;9052;53.494;14.376;2022-11-18T14:01:02;3.93;;;1.37;;
17852;SDS011;9052;53.494;14.376;2022-11-18T14:03:31;2.57;;;1.97;;
17852;SDS011;9052;53.494;14.376;2022-11-18T14:06:00;1.63;;;1.53;;
17852;SDS011;9052;53.494;14.376;2022-11-18T14:08:28;7.60;;;2.00;;
17852;SDS011;9052;53.494;14.376;2022-11-18T14:10:55;2.37;;;2.10;;
17852;SDS011;9052;53.494;14.376;2022-11-18T14:13:24;6.00;;;2.00;;
17852;SDS011;9052;53.494;14.376;2022-11-18T14:15:53;1.50;;;1.47;;
17852;SDS011;9052;53.494;14.376;2022-11-18T14:18:25;3.03;;;1.83;;
17852;SDS011;9052;53.494;14.376;2022-11-18T14:20:55;1.30;;;1.30;;
17852;SDS011;9052;53.494;14.376;2022-11-18T14:23:25;1.20;;;1.10;;
17852;SDS011;9052;53.494;14.376;2022-11-18T14:25:54;2.30;;;1.30;;
17852;SDS011;9052;53.494;14.376;2022-11-18T14:28:22;3.10;;;1.60;;
17852;SDS011;9052;53.494;14.376;2022-11-18T14:30:59;4.30;;;1.60;;
17852;SDS011;9052;53.494;14.376;2022-11-18T14:33:28;2.03;;;1.70;;
17852;SDS011;9052;53.494;14.376;2022-11-18T14:35:56;3.43;;;2.60;;
17852;SDS011;9052;53.494;14.376;2022-11-18T14:38:28;2.97;;;2.63;;
17852;SDS011;9052;53.494;14.376;2022-11-18T14:40:57;4.03;;;2.50;;
17852;SDS011;9052;53.494;14.376;2022-11-18T14:43:26;5.00;;;2.30;;
17852;SDS011;9052;53.494;14.376;2022-11-18T14:45:53;1.57;;;1.47;;
17852;SDS011;9052;53.494;14.376;2022-11-18T14:48:24;1.40;;;1.23;;
17852;SDS011;9052;53.494;14.376;2022-11-18T14:50:52;1.73;;;1.17;;
17852;SDS011;9052;53.494;14.376;2022-11-18T14:53:19;1.17;;;1.10;;
17852;SDS011;9052;53.494;14.376;2022-11-18T14:55:47;3.30;;;2.27;;
17852;SDS011;9052;53.494;14.376;2022-11-18T14:58:15;1.83;;;1.70;;
17852;SDS011;9052;53.494;14.376;2022-11-18T15:00:43;4.10;;;2.70;;
17852;SDS011;9052;53.494;14.376;2022-11-18T15:03:10;3.50;;;3.17;;
17852;SDS011;9052;53.494;14.376;2022-11-18T15:05:39;15.03;;;5.60;;
17852;SDS011;9052;53.494;14.376;2022-11-18T15:08:06;5.10;;;3.53;;
17852;SDS011;9052;53.494;14.376;2022-11-18T15:10:33;7.93;;;3.87;;
17852;SDS011;9052;53.494;14.376;2022-11-18T15:13:00;8.90;;;5.60;;
17852;SDS011;9052;53.494;14.376;2022-11-18T15:15:27;5.80;;;5.00;;
17852;SDS011;9052;53.494;14.376;2022-11-18T15:17:54;11.73;;;5.47;;
17852;SDS011;9052;53.494;14.376;2022-11-18T15:20:21;4.63;;;3.20;;
17852;SDS011;9052;53.494;14.376;2022-11-18T15:22:51;8.13;;;3.67;;
17852;SDS011;9052;53.494;14.376;2022-11-18T15:25:17;6.80;;;4.87;;
17852;SDS011;9052;53.494;14.376;2022-11-18T15:27:44;5.27;;;4.37;;
17852;SDS011;9052;53.494;14.376;2022-11-18T15:30:12;6.10;;;3.30;;
17852;SDS011;9052;53.494;14.376;2022-11-18T15:32:40;4.17;;;3.47;;
17852;SDS011;9052;53.494;14.376;2022-11-18T15:35:08;4.20;;;3.37;;
17852;SDS011;9052;53.494;14.376;2022-11-18T15:37:37;6.40;;;3.20;;
17852;SDS011;9052;53.494;14.376;2022-11-18T15:40:05;5.10;;;4.17;;
17852;SDS011;9052;53.494;14.376;2022-11-18T15:42:33;7.30;;;3.27;;
17852;SDS011;9052;53.494;14.376;2022-11-18T15:45:00;5.63;;;4.83;;
17852;SDS011;9052;53.494;14.376;2022-11-18T15:47:27;5.83;;;4.70;;
17852;SDS011;9052;53.494;14.376;2022-11-18T15:49:54;4.83;;;4.37;;
17852;SDS011;9052;53.494;14.376;2022-11-18T15:52:21;7.00;;;4.43;;
17852;SDS011;9052;53.494;14.376;2022-11-18T15:54:48;7.17;;;5.20;;
17852;SDS011;9052;53.494;14.376;2022-11-18T15:57:16;9.10;;;5.20;;
17852;SDS011;9052;53.494;14.376;2022-11-18T15:59:43;7.50;;;4.23;;
17852;SDS011;9052;53.494;14.376;2022-11-18T16:02:10;10.97;;;6.17;;
17852;SDS011;9052;53.494;14.376;2022-11-18T16:04:37;7.80;;;6.27;;
17852;SDS011;9052;53.494;14.376;2022-11-18T16:07:04;12.93;;;4.37;;
17852;SDS011;9052;53.494;14.376;2022-11-18T16:09:31;6.77;;;4.37;;
17852;SDS011;9052;53.494;14.376;2022-11-18T16:12:27;10.33;;;5.40;;
17852;SDS011;9052;53.494;14.376;2022-11-18T16:15:12;8.57;;;7.23;;
17852;SDS011;9052;53.494;14.376;2022-11-18T16:17:57;5.63;;;5.00;;
17852;SDS011;9052;53.494;14.376;2022-11-18T16:20:26;9.17;;;5.60;;
17852;SDS011;9052;53.494;14.376;2022-11-18T16:22:56;10.03;;;4.73;;
17852;SDS011;9052;53.494;14.376;2022-11-18T16:25:23;5.87;;;4.53;;
17852;SDS011;9052;53.494;14.376;2022-11-18T16:27:53;8.60;;;4.33;;
17852;SDS011;9052;53.494;14.376;2022-11-18T16:30:20;5.40;;;4.13;;
17852;SDS011;9052;53.494;14.376;2022-11-18T16:33:04;12.13;;;4.77;;
17852;SDS011;9052;53.494;14.376;2022-11-18T16:35:31;6.80;;;4.50;;
17852;SDS011;9052;53.494;14.376;2022-11-18T16:37:58;5.57;;;4.37;;
17852;SDS011;9052;53.494;14.376;2022-11-18T16:40:26;8.43;;;5.80;;
17852;SDS011;9052;53.494;14.376;2022-11-18T16:42:54;14.97;;;4.90;;
17852;SDS011;9052;53.494;14.376;2022-11-18T16:45:21;8.40;;;4.40;;
17852;SDS011;9052;53.494;14.376;2022-11-18T16:47:48;6.00;;;3.40;;
17852;SDS011;9052;53.494;14.376;2022-11-18T16:50:16;10.03;;;3.80;;
17852;SDS011;9052;53.494;14.376;2022-11-18T16:52:43;7.33;;;4.20;;
17852;SDS011;9052;53.494;14.376;2022-11-18T16:55:10;3.40;;;3.20;;
17852;SDS011;9052;53.494;14.376;2022-11-18T16:57:37;7.53;;;4.70;;
17852;SDS011;9052;53.494;14.376;2022-11-18T17:00:06;14.33;;;9.23;;
17852;SDS011;9052;53.494;14.376;2022-11-18T17:02:34;16.33;;;8.67;;
17852;SDS011;9052;53.494;14.376;2022-11-18T17:05:02;8.70;;;4.87;;
17852;SDS011;9052;53.494;14.376;2022-11-18T17:07:29;6.97;;;4.70;;
17852;SDS011;9052;53.494;14.376;2022-11-18T17:09:56;8.80;;;3.63;;
17852;SDS011;9052;53.494;14.376;2022-11-18T17:12:23;7.50;;;5.90;;
17852;SDS011;9052;53.494;14.376;2022-11-18T17:14:50;8.80;;;6.80;;
17852;SDS011;9052;53.494;14.376;2022-11-18T17:17:19;10.33;;;3.50;;
17852;SDS011;9052;53.494;14.376;2022-11-18T17:19:46;5.43;;;3.87;;
17852;SDS011;9052;53.494;14.376;2022-11-18T17:22:13;3.97;;;3.30;;
17852;SDS011;9052;53.494;14.376;2022-11-18T17:24:41;5.80;;;3.37;;
17852;SDS011;9052;53.494;14.376;2022-11-18T17:27:08;4.70;;;3.20;;
17852;SDS011;9052;53.494;14.376;2022-11-18T17:29:35;7.40;;;4.03;;
17852;SDS011;9052;53.494;14.376;2022-11-18T17:32:02;11.30;;;5.10;;
17852;SDS011;9052;53.494;14.376;2022-11-18T17:34:30;11.43;;;4.43;;
17852;SDS011;9052;53.494;14.376;2022-11-18T17:36:57;11.23;;;5.00;;
17852;SDS011;9052;53.494;14.376;2022-11-18T17:39:24;16.83;;;4.40;;
17852;SDS011;9052;53.494;14.376;2022-11-18T17:41:51;10.20;;;4.97;;
17852;SDS011;9052;53.494;14.376;2022-11-18T17:44:35;11.07;;;6.73;;
17852;SDS011;9052;53.494;14.376;2022-11-18T17:47:03;14.83;;;6.90;;
17852;SDS011;9052;53.494;14.376;2022-11-18T17:49:32;15.60;;;7.57;;
17852;SDS011;9052;53.494;14.376;2022-11-18T17:51:59;9.60;;;6.47;;
17852;SDS011;9052;53.494;14.376;2022-11-18T17:54:26;13.90;;;6.70;;
17852;SDS011;9052;53.494;14.376;2022-11-18T17:56:53;9.20;;;7.30;;
17852;SDS011;9052;53.494;14.376;2022-11-18T17:59:20;9.70;;;5.80;;
17852;SDS011;9052;53.494;14.376;2022-11-18T18:01:48;16.97;;;7.57;;
17852;SDS011;9052;53.494;14.376;2022-11-18T18:04:15;16.07;;;7.70;;
17852;SDS011;9052;53.494;14.376;2022-11-18T18:06:46;8.30;;;7.17;;
17852;SDS011;9052;53.494;14.376;2022-11-18T18:09:15;11.50;;;7.00;;
17852;SDS011;9052;53.494;14.376;2022-11-18T18:11:43;12.17;;;8.20;;
17852;SDS011;9052;53.494;14.376;2022-11-18T18:14:10;21.77;;;9.33;;
17852;SDS011;9052;53.494;14.376;2022-11-18T18:16:39;18.77;;;9.30;;
17852;SDS011;9052;53.494;14.376;2022-11-18T18:19:08;19.57;;;10.07;;
17852;SDS011;9052;53.494;14.376;2022-11-18T18:21:40;10.70;;;6.87;;
17852;SDS011;9052;53.494;14.376;2022-11-18T18:24:09;28.80;;;9.93;;
17852;SDS011;9052;53.494;14.376;2022-11-18T18:26:36;22.73;;;10.57;;
17852;SDS011;9052;53.494;14.376;2022-11-18T18:29:04;14.37;;;9.10;;
17852;SDS011;9052;53.494;14.376;2022-11-18T18:31:32;28.63;;;9.63;;
17852;SDS011;9052;53.494;14.376;2022-11-18T18:34:00;12.43;;;8.30;;
17852;SDS011;9052;53.494;14.376;2022-11-18T18:36:27;16.33;;;9.47;;
17852;SDS011;9052;53.494;14.376;2022-11-18T18:38:55;16.07;;;9.80;;
17852;SDS011;9052;53.494;14.376;2022-11-18T18:41:23;31.03;;;8.27;;
17852;SDS011;9052;53.494;14.376;2022-11-18T18:43:51;13.93;;;8.13;;
17852;SDS011;9052;53.494;14.376;2022-11-18T18:46:19;12.70;;;6.77;;
17852;SDS011;9052;53.494;14.376;2022-11-18T18:48:53;12.70;;;7.60;;
17852;SDS011;9052;53.494;14.376;2022-11-18T18:51:24;114.47;;;9.43;;
17852;SDS011;9052;53.494;14.376;2022-11-18T18:53:52;10.67;;;6.73;;
17852;SDS011;9052;53.494;14.376;2022-11-18T18:56:20;16.80;;;6.87;;
17852;SDS011;9052;53.494;14.376;2022-11-18T18:58:48;8.07;;;6.10;;
17852;SDS011;9052;53.494;14.376;2022-11-18T19:01:16;10.80;;;5.83;;
17852;SDS011;9052;53.494;14.376;2022-11-18T19:03:43;13.77;;;6.87;;
17852;SDS011;9052;53.494;14.376;2022-11-18T19:06:15;15.00;;;6.10;;
17852;SDS011;9052;53.494;14.376;2022-11-18T19:08:44;9.60;;;6.87;;
17852;SDS011;9052;53.494;14.376;2022-11-18T19:11:12;14.80;;;7.43;;
17852;SDS011;9052;53.494;14.376;2022-11-18T19:13:54;14.00;;;6.60;;
17852;SDS011;9052;53.494;14.376;2022-11-18T19:16:25;12.10;;;6.40;;
17852;SDS011;9052;53.494;14.376;2022-11-18T19:18:52;9.40;;;7.60;;
17852;SDS011;9052;53.494;14.376;2022-11-18T19:21:20;12.17;;;8.23;;
17852;SDS011;9052;53.494;14.376;2022-11-18T19:23:47;18.90;;;9.23;;
17852;SDS011;9052;53.494;14.376;2022-11-18T19:26:14;12.23;;;8.83;;
17852;SDS011;9052;53.494;14.376;2022-11-18T19:28:41;14.43;;;8.40;;
17852;SDS011;9052;53.494;14.376;2022-11-18T19:31:09;14.23;;;10.00;;
17852;SDS011;9052;53.494;14.376;2022-11-18T19:33:36;8.50;;;7.60;;
17852;SDS011;9052;53.494;14.376;2022-11-18T19:36:04;10.60;;;7.13;;
17852;SDS011;9052;53.494;14.376;2022-11-18T19:38:31;9.20;;;7.03;;
17852;SDS011;9052;53.494;14.376;2022-11-18T19:41:00;10.90;;;6.77;;
17852;SDS011;9052;53.494;14.376;2022-11-18T19:43:27;8.90;;;6.40;;
17852;SDS011;9052;53.494;14.376;2022-11-18T19:45:55;16.73;;;8.00;;
17852;SDS011;9052;53.494;14.376;2022-11-18T19:48:23;11.60;;;8.27;;
17852;SDS011;9052;53.494;14.376;2022-11-18T19:50:51;16.90;;;6.30;;
17852;SDS011;9052;53.494;14.376;2022-11-18T19:53:18;14.10;;;8.07;;
17852;SDS011;9052;53.494;14.376;2022-11-18T19:55:59;13.80;;;7.90;;
17852;SDS011;9052;53.494;14.376;2022-11-18T19:58:27;13.07;;;7.90;;
17852;SDS011;9052;53.494;14.376;2022-11-18T20:00:56;12.40;;;8.50;;
17852;SDS011;9052;53.494;14.376;2022-11-18T20:03:25;19.23;;;7.10;;
17852;SDS011;9052;53.494;14.376;2022-11-18T20:05:53;8.13;;;6.70;;
17852;SDS011;9052;53.494;14.376;2022-11-18T20:08:21;18.30;;;7.20;;
17852;SDS011;9052;53.494;14.376;2022-11-18T20:10:50;12.73;;;8.40;;
17852;SDS011;9052;53.494;14.376;2022-11-18T20:13:18;8.53;;;7.50;;
17852;SDS011;9052;53.494;14.376;2022-11-18T20:15:45;12.07;;;5.50;;
17852;SDS011;9052;53.494;14.376;2022-11-18T20:18:12;12.30;;;8.30;;
17852;SDS011;9052;53.494;14.376;2022-11-18T20:20:40;20.83;;;7.20;;
17852;SDS011;9052;53.494;14.376;2022-11-18T20:23:07;21.43;;;10.10;;
17852;SDS011;9052;53.494;14.376;2022-11-18T20:25:34;29.60;;;10.40;;
17852;SDS011;9052;53.494;14.376;2022-11-18T20:28:02;20.33;;;9.60;;
17852;SDS011;9052;53.494;14.376;2022-11-18T20:30:29;17.23;;;9.37;;
17852;SDS011;9052;53.494;14.376;2022-11-18T20:32:57;11.70;;;6.77;;
17852;SDS011;9052;53.494;14.376;2022-11-18T20:35:24;16.00;;;7.97;;
17852;SDS011;9052;53.494;14.376;2022-11-18T20:37:53;9.40;;;7.00;;
17852;SDS011;9052;53.494;14.376;2022-11-18T20:40:20;9.10;;;6.53;;
17852;SDS011;9052;53.494;14.376;2022-11-18T20:42:47;10.63;;;6.57;;
17852;SDS011;9052;53.494;14.376;2022-11-18T20:45:31;11.17;;;6.33;;
17852;SDS011;9052;53.494;14.376;2022-11-18T20:47:58;11.47;;;7.23;;
17852;SDS011;9052;53.494;14.376;2022-11-18T20:50:26;10.13;;;6.63;;
17852;SDS011;9052;53.494;14.376;2022-11-18T20:52:54;7.80;;;5.90;;
17852;SDS011;9052;53.494;14.376;2022-11-18T20:55:21;11.27;;;7.63;;
17852;SDS011;9052;53.494;14.376;2022-11-18T20:57:48;16.43;;;7.93;;
17852;SDS011;9052;53.494;14.376;2022-11-18T21:00:16;9.53;;;7.70;;
17852;SDS011;9052;53.494;14.376;2022-11-18T21:02:43;17.83;;;11.80;;
17852;SDS011;9052;53.494;14.376;2022-11-18T21:05:10;17.30;;;11.40;;
17852;SDS011;9052;53.494;14.376;2022-11-18T21:07:38;11.90;;;6.97;;
17852;SDS011;9052;53.494;14.376;2022-11-18T21:10:07;9.07;;;7.00;;
17852;SDS011;9052;53.494;14.376;2022-11-18T21:12:34;15.53;;;6.90;;
17852;SDS011;9052;53.494;14.376;2022-11-18T21:15:21;12.13;;;7.17;;
17852;SDS011;9052;53.494;14.376;2022-11-18T21:17:47;9.53;;;6.53;;
17852;SDS011;9052;53.494;14.376;2022-11-18T21:20:15;15.27;;;8.37;;
17852;SDS011;9052;53.494;14.376;2022-11-18T21:22:56;6.37;;;5.53;;
17852;SDS011;9052;53.494;14.376;2022-11-18T21:25:25;9.30;;;6.30;;
17852;SDS011;9052;53.494;14.376;2022-11-18T21:27:52;11.70;;;7.60;;
17852;SDS011;9052;53.494;14.376;2022-11-18T21:30:19;12.10;;;6.90;;
17852;SDS011;9052;53.494;14.376;2022-11-18T21:32:46;10.23;;;6.57;;
17852;SDS011;9052;53.494;14.376;2022-11-18T21:35:13;15.57;;;7.50;;
17852;SDS011;9052;53.494;14.376;2022-11-18T21:37:40;12.43;;;6.53;;
17852;SDS011;9052;53.494;14.376;2022-11-18T21:40:08;12.23;;;7.27;;
17852;SDS011;9052;53.494;14.376;2022-11-18T21:42:37;8.60;;;6.70;;
17852;SDS011;9052;53.494;14.376;2022-11-18T21:45:05;11.93;;;7.80;;
17852;SDS011;9052;53.494;14.376;2022-11-18T21:47:33;19.13;;;8.87;;
17852;SDS011;9052;53.494;14.376;2022-11-18T21:50:00;10.40;;;7.90;;
17852;SDS011;9052;53.494;14.376;2022-11-18T21:52:27;10.27;;;7.10;;
17852;SDS011;9052;53.494;14.376;2022-11-18T21:54:55;16.40;;;8.00;;
17852;SDS011;9052;53.494;14.376;2022-11-18T21:57:22;17.30;;;7.77;;
17852;SDS011;9052;53.494;14.376;2022-11-18T21:59:50;11.23;;;8.87;;
17852;SDS011;9052;53.494;14.376;2022-11-18T22:02:17;12.30;;;9.03;;
17852;SDS011;9052;53.494;14.376;2022-11-18T22:04:44;17.53;;;9.70;;
17852;SDS011;9052;53.494;14.376;2022-11-18T22:07:23;25.00;;;15.00;;
17852;SDS011;9052;53.494;14.376;2022-11-18T22:09:51;40.50;;;14.13;;
17852;SDS011;9052;53.494;14.376;2022-11-18T22:12:19;26.03;;;13.00;;